createdAt,value
2018-08-22T00:00:50.656Z,19.29
2018-08-22T00:03:21.080Z,19.22
2018-08-22T00:05:50.800Z,19.23
2018-08-22T00:08:53.210Z,19.20
2018-08-22T00:11:23.292Z,19.17
2018-08-22T00:13:53.374Z,19.15
2018-08-22T00:16:23.140Z,19.13
2018-08-22T00:18:53.016Z,19.11
2018-08-22T00:21:22.808Z,19.08
2018-08-22T00:23:52.604Z,19.04
2018-08-22T00:26:22.703Z,18.99
2018-08-22T00:28:52.755Z,18.93
2018-08-22T00:31:22.722Z,18.81
2018-08-22T00:33:52.815Z,18.80
2018-08-22T00:36:22.931Z,18.78
2018-08-22T00:38:52.746Z,18.77
2018-08-22T00:41:22.658Z,18.76
2018-08-22T00:43:53.132Z,18.73
2018-08-22T00:46:23.127Z,18.70
2018-08-22T00:48:53.052Z,18.69
2018-08-22T00:51:22.755Z,18.65
2018-08-22T00:53:52.719Z,18.62
2018-08-22T00:56:22.650Z,18.59
2018-08-22T00:58:52.740Z,18.57
2018-08-22T01:01:22.609Z,18.53
2018-08-22T01:03:52.702Z,18.50
2018-08-22T01:06:22.731Z,18.47
2018-08-22T01:08:52.619Z,18.41
2018-08-22T01:11:22.709Z,18.42
2018-08-22T01:13:52.644Z,18.40
2018-08-22T01:16:22.723Z,18.37
2018-08-22T01:18:52.663Z,18.33
2018-08-22T01:21:22.728Z,18.27
2018-08-22T01:23:52.745Z,18.23
2018-08-22T01:26:22.729Z,18.19
2018-08-22T01:28:52.803Z,18.15
2018-08-22T01:31:22.995Z,18.14
2018-08-22T01:33:52.740Z,18.11
2018-08-22T01:36:22.747Z,18.09
2018-08-22T01:38:52.639Z,18.07
2018-08-22T01:41:22.761Z,18.05
2018-08-22T01:43:52.669Z,18.02
2018-08-22T01:46:22.721Z,18.00
2018-08-22T01:48:52.652Z,17.98
2018-08-22T01:51:22.579Z,17.97
2018-08-22T01:53:52.652Z,17.95
2018-08-22T01:56:22.605Z,17.88
2018-08-22T01:58:56.563Z,17.88
2018-08-22T02:01:26.614Z,17.85
2018-08-22T02:03:56.716Z,17.81
2018-08-22T02:06:26.648Z,17.72
2018-08-22T02:08:56.648Z,17.72
2018-08-22T02:11:26.734Z,17.65
2018-08-22T02:13:56.746Z,17.59
2018-08-22T02:16:26.717Z,17.58
2018-08-22T02:18:56.809Z,17.52
2018-08-22T02:21:26.544Z,17.52
2018-08-22T02:23:56.323Z,17.49
2018-08-22T02:26:26.395Z,17.47
2018-08-22T02:28:56.125Z,17.45
2018-08-22T02:31:25.998Z,17.38
2018-08-22T02:33:55.770Z,17.40
2018-08-22T02:36:25.601Z,17.37
2018-08-22T02:38:55.351Z,17.36
2018-08-22T02:41:25.331Z,17.32
2018-08-22T02:43:55.547Z,17.26
2018-08-22T02:46:25.258Z,17.27
2018-08-22T02:48:55.077Z,17.23
2018-08-22T02:51:26.340Z,17.19
2018-08-22T02:53:56.777Z,17.13
2018-08-22T02:56:27.680Z,17.13
2018-08-22T02:58:58.521Z,17.06
2018-08-22T03:01:29.692Z,17.04
2018-08-22T03:04:00.609Z,16.98
2018-08-22T03:06:31.381Z,16.93
2018-08-22T03:09:02.821Z,16.90
2018-08-22T03:11:33.541Z,16.88
2018-08-22T03:14:04.823Z,16.86
2018-08-22T03:16:35.688Z,16.85
2018-08-22T03:19:06.811Z,16.82
2018-08-22T03:21:37.533Z,16.80
2018-08-22T03:24:08.766Z,16.77
2018-08-22T03:26:39.501Z,16.74
2018-08-22T03:29:10.720Z,16.72
2018-08-22T03:31:42.185Z,16.70
2018-08-22T03:34:12.022Z,16.68
2018-08-22T03:36:42.645Z,16.65
2018-08-22T03:39:13.717Z,16.62
2018-08-22T03:41:44.446Z,16.60
2018-08-22T03:44:15.810Z,16.58
2018-08-22T03:46:46.533Z,16.55
2018-08-22T03:49:17.780Z,16.53
2018-08-22T03:51:48.480Z,16.51
2018-08-22T03:54:19.779Z,16.48
2018-08-22T03:56:50.477Z,16.45
2018-08-22T03:59:21.724Z,16.45
2018-08-22T04:01:52.452Z,16.39
2018-08-22T04:04:23.800Z,16.41
2018-08-22T04:06:54.520Z,16.39
2018-08-22T04:09:25.813Z,16.37
2018-08-22T04:11:56.554Z,16.39
2018-08-22T04:14:27.830Z,16.38
2018-08-22T04:16:58.544Z,16.38
2018-08-22T04:19:29.786Z,16.37
2018-08-22T04:22:01.012Z,16.35
2018-08-22T04:24:31.955Z,16.35
2018-08-22T04:27:02.617Z,16.31
2018-08-22T04:29:33.869Z,16.31
2018-08-22T04:32:05.713Z,16.30
2018-08-22T04:34:35.596Z,16.30
2018-08-22T04:37:06.816Z,16.30
2018-08-22T04:39:37.740Z,16.32
2018-08-22T04:42:08.449Z,16.33
2018-08-22T04:44:39.960Z,16.33
2018-08-22T04:47:10.777Z,16.31
2018-08-22T04:49:41.655Z,16.28
2018-08-22T04:52:12.761Z,16.26
2018-08-22T04:54:43.597Z,16.26
2018-08-22T04:57:14.455Z,16.24
2018-08-22T04:59:45.848Z,16.28
2018-08-22T05:02:16.588Z,16.29
2018-08-22T05:04:47.496Z,16.29
2018-08-22T05:07:18.651Z,16.35
2018-08-22T05:09:49.565Z,16.44
2018-08-22T05:12:20.390Z,16.51
2018-08-22T05:14:53.533Z,16.53
2018-08-22T05:17:23.240Z,16.55
2018-08-22T05:19:53.707Z,16.59
2018-08-22T05:22:24.492Z,16.57
2018-08-22T05:24:55.681Z,16.59
2018-08-22T05:27:27.066Z,16.59
2018-08-22T05:29:57.706Z,16.72
2018-08-22T05:32:29.060Z,17.30
2018-08-22T05:34:59.902Z,17.86
2018-08-22T05:37:30.948Z,18.30
2018-08-22T05:40:01.743Z,18.69
2018-08-22T05:42:32.516Z,19.04
2018-08-22T05:45:04.005Z,19.17
2018-08-22T05:47:34.869Z,19.26
2018-08-22T05:50:06.084Z,19.29
2018-08-22T05:52:36.748Z,19.28
2018-08-22T05:55:07.451Z,19.14
2018-08-22T05:57:39.112Z,19.06
2018-08-22T06:00:09.649Z,19.13
2018-08-22T06:02:40.785Z,19.18
2018-08-22T06:05:10.504Z,19.24
2018-08-22T06:07:41.738Z,19.23
2018-08-22T06:10:12.471Z,19.41
2018-08-22T06:12:43.898Z,19.59
2018-08-22T06:15:15.230Z,19.83
2018-08-22T06:17:45.845Z,19.90
2018-08-22T06:20:16.685Z,19.99
2018-08-22T06:22:48.038Z,20.13
2018-08-22T06:25:18.625Z,20.30
2018-08-22T06:27:49.474Z,20.54
2018-08-22T06:30:20.508Z,20.54
2018-08-22T06:32:51.405Z,20.45
2018-08-22T06:35:22.500Z,20.39
2018-08-22T06:37:53.624Z,20.40
2018-08-22T06:40:24.213Z,20.43
2018-08-22T06:42:55.542Z,20.51
2018-08-22T06:45:26.464Z,20.56
2018-08-22T06:47:58.989Z,20.64
2018-08-22T06:50:28.498Z,20.68
2018-08-22T06:52:59.625Z,20.74
2018-08-22T06:55:30.085Z,20.83
2018-08-22T06:58:01.397Z,20.91
2018-08-22T07:00:32.598Z,21.12
2018-08-22T07:03:03.277Z,21.25
2018-08-22T07:05:34.613Z,21.36
2018-08-22T07:08:05.583Z,21.43
2018-08-22T07:10:36.241Z,21.49
2018-08-22T07:13:07.537Z,21.54
2018-08-22T07:15:38.333Z,21.65
2018-08-22T07:18:09.829Z,21.97
2018-08-22T07:20:40.426Z,22.02
2018-08-22T07:23:11.846Z,22.05
2018-08-22T07:25:42.371Z,22.19
2018-08-22T07:28:13.700Z,22.36
2018-08-22T07:30:44.373Z,22.41
2018-08-22T07:33:15.612Z,22.44
2018-08-22T07:35:46.155Z,22.54
2018-08-22T07:38:17.473Z,22.66
2018-08-22T07:40:48.108Z,22.84
2018-08-22T07:43:19.723Z,22.92
2018-08-22T07:45:50.160Z,23.10
2018-08-22T07:48:21.546Z,23.44
2018-08-22T07:50:52.057Z,23.48
2018-08-22T07:53:23.475Z,23.54
2018-08-22T07:55:54.306Z,23.62
2018-08-22T07:58:25.493Z,23.73
2018-08-22T08:00:56.417Z,23.79
2018-08-22T08:03:27.428Z,24.03
2018-08-22T08:05:58.400Z,24.21
2018-08-22T08:08:29.474Z,24.27
2018-08-22T08:11:00.495Z,24.37
2018-08-22T08:13:31.393Z,24.48
2018-08-22T08:16:01.615Z,24.55
2018-08-22T08:18:32.342Z,24.71
2018-08-22T08:21:04.467Z,24.65
2018-08-22T08:23:34.254Z,25.01
2018-08-22T08:26:05.644Z,25.06
2018-08-22T08:28:36.406Z,25.21
2018-08-22T08:31:07.630Z,25.19
2018-08-22T08:33:38.401Z,25.35
2018-08-22T08:36:09.580Z,25.45
2018-08-22T08:38:40.296Z,25.52
2018-08-22T08:41:11.418Z,25.62
2018-08-22T08:43:42.717Z,25.57
2018-08-22T08:46:13.173Z,25.60
2018-08-22T08:48:44.538Z,25.67
2018-08-22T08:51:15.132Z,25.64
2018-08-22T08:53:46.765Z,25.81
2018-08-22T08:56:17.326Z,25.89
2018-08-22T08:58:48.513Z,25.93
2018-08-22T09:01:19.231Z,26.10
2018-08-22T09:03:50.713Z,26.22
2018-08-22T09:06:21.530Z,26.36
2018-08-22T09:08:52.145Z,26.47
2018-08-22T09:11:23.471Z,26.54
2018-08-22T09:13:58.276Z,26.50
2018-08-22T09:16:27.839Z,26.71
2018-08-22T09:18:57.358Z,26.91
2018-08-22T09:21:27.523Z,27.07
2018-08-22T09:23:58.181Z,27.04
2018-08-22T09:26:29.421Z,27.22
2018-08-22T09:29:00.420Z,27.31
2018-08-22T09:31:30.921Z,27.20
2018-08-22T09:34:01.445Z,27.30
2018-08-22T09:36:32.676Z,27.34
2018-08-22T09:39:03.301Z,27.43
2018-08-22T09:41:34.868Z,27.46
2018-08-22T09:44:05.663Z,27.56
2018-08-22T09:46:36.419Z,27.63
2018-08-22T09:49:07.286Z,27.73
2018-08-22T09:51:38.488Z,27.70
2018-08-22T09:54:09.550Z,27.77
2018-08-22T09:56:40.189Z,27.97
2018-08-22T09:59:11.393Z,27.94
2018-08-22T10:01:43.096Z,27.85
2018-08-22T10:04:13.365Z,27.67
2018-08-22T10:06:46.590Z,27.58
2018-08-22T10:09:20.877Z,27.78
2018-08-22T10:11:50.498Z,27.92
2018-08-22T10:14:20.080Z,28.12
2018-08-22T10:16:50.212Z,28.29
2018-08-22T10:19:19.750Z,28.29
2018-08-22T10:21:50.389Z,28.21
2018-08-22T10:24:21.412Z,28.26
2018-08-22T10:26:52.394Z,28.16
2018-08-22T10:29:23.253Z,28.27
2018-08-22T10:31:53.946Z,28.57
2018-08-22T10:34:24.813Z,28.70
2018-08-22T10:36:55.253Z,28.71
2018-08-22T10:39:26.714Z,28.82
2018-08-22T10:41:57.409Z,29.04
2018-08-22T10:44:28.530Z,29.10
2018-08-22T10:46:59.163Z,29.24
2018-08-22T10:49:30.406Z,29.27
2018-08-22T10:52:01.509Z,29.31
2018-08-22T10:54:32.189Z,29.61
2018-08-22T10:57:03.357Z,29.56
2018-08-22T10:59:34.585Z,29.36
2018-08-22T11:02:05.238Z,29.35
2018-08-22T11:04:36.528Z,29.43
2018-08-22T11:07:07.125Z,29.73
2018-08-22T11:09:38.800Z,29.83
2018-08-22T11:12:09.296Z,29.86
2018-08-22T11:14:40.601Z,30.01
2018-08-22T11:17:11.089Z,29.99
2018-08-22T11:19:42.220Z,29.84
2018-08-22T11:22:24.280Z,29.79
2018-08-22T11:25:04.734Z,29.79
2018-08-22T11:27:45.330Z,30.10
2018-08-22T11:30:25.665Z,30.41
2018-08-22T11:33:06.167Z,30.80
2018-08-22T11:35:34.086Z,31.18
2018-08-22T11:38:03.560Z,31.17
2018-08-22T11:40:33.465Z,31.26
2018-08-22T11:43:02.941Z,31.50
2018-08-22T11:45:32.496Z,31.76
2018-08-22T11:48:02.120Z,31.54
2018-08-22T11:50:31.593Z,31.37
2018-08-22T11:53:01.645Z,31.26
2018-08-22T11:55:31.510Z,31.10
2018-08-22T11:58:01.428Z,31.50
2018-08-22T12:00:31.004Z,31.70
2018-08-22T12:03:00.712Z,32.01
2018-08-22T12:05:30.452Z,32.20
2018-08-22T12:08:00.056Z,32.49
2018-08-22T12:10:31.502Z,32.60
2018-08-22T12:13:03.452Z,32.77
2018-08-22T12:15:34.138Z,32.35
2018-08-22T12:18:03.895Z,32.45
2018-08-22T12:20:33.565Z,32.06
2018-08-22T12:23:03.605Z,32.14
2018-08-22T12:25:33.308Z,32.60
2018-08-22T12:28:03.134Z,32.55
2018-08-22T12:30:32.816Z,32.86
2018-08-22T12:33:02.765Z,33.02
2018-08-22T12:35:32.601Z,32.93
2018-08-22T12:38:02.397Z,32.66
2018-08-22T12:40:31.990Z,33.08
2018-08-22T12:43:01.790Z,32.84
2018-08-22T12:45:31.803Z,32.93
2018-08-22T12:48:01.495Z,33.21
2018-08-22T12:50:31.466Z,33.45
2018-08-22T12:53:01.128Z,33.36
2018-08-22T12:55:30.780Z,32.90
2018-08-22T12:58:00.867Z,32.95
2018-08-22T13:00:30.440Z,33.24
2018-08-22T13:03:00.445Z,33.15
2018-08-22T13:05:30.306Z,33.52
2018-08-22T13:08:00.094Z,33.81
2018-08-22T13:10:30.472Z,33.95
2018-08-22T13:13:00.529Z,34.32
2018-08-22T13:15:30.327Z,34.66
2018-08-22T13:18:00.425Z,34.83
2018-08-22T13:20:30.401Z,34.46
2018-08-22T13:23:01.990Z,33.85
2018-08-22T13:25:32.816Z,33.63
2018-08-22T13:28:03.660Z,33.69
2018-08-22T13:30:34.889Z,33.65
2018-08-22T13:33:05.776Z,33.64
2018-08-22T13:35:36.975Z,33.93
2018-08-22T13:38:07.929Z,34.22
2018-08-22T13:40:38.630Z,34.39
2018-08-22T13:43:09.677Z,34.45
2018-08-22T13:45:40.494Z,34.27
2018-08-22T13:48:11.545Z,34.00
2018-08-22T13:50:42.755Z,34.04
2018-08-22T13:53:13.741Z,34.36
2018-08-22T13:55:44.587Z,34.49
2018-08-22T13:58:15.729Z,34.58
2018-08-22T14:00:46.484Z,34.28
2018-08-22T14:03:17.804Z,34.27
2018-08-22T14:05:48.593Z,34.33
2018-08-22T14:08:19.570Z,34.51
2018-08-22T14:10:50.421Z,34.76
2018-08-22T14:13:21.941Z,34.58
2018-08-22T14:15:52.802Z,34.64
2018-08-22T14:18:23.629Z,34.69
2018-08-22T14:20:54.562Z,34.62
2018-08-22T14:23:25.577Z,34.51
2018-08-22T14:25:56.547Z,34.36
2018-08-22T14:28:27.645Z,34.38
2018-08-22T14:30:58.500Z,34.55
2018-08-22T14:33:36.476Z,34.37
2018-08-22T14:36:06.688Z,34.43
2018-08-22T14:38:36.662Z,34.46
2018-08-22T14:41:06.569Z,34.39
2018-08-22T14:43:36.415Z,34.62
2018-08-22T14:46:06.328Z,34.87
2018-08-22T14:48:36.601Z,34.78
2018-08-22T14:51:07.107Z,34.39
2018-08-22T14:53:36.957Z,34.17
2018-08-22T14:56:07.852Z,33.83
2018-08-22T14:58:38.839Z,32.85
2018-08-22T15:01:09.621Z,33.12
2018-08-22T15:03:40.590Z,33.45
2018-08-22T15:06:11.436Z,33.66
2018-08-22T15:08:42.705Z,33.71
2018-08-22T15:11:13.482Z,33.79
2018-08-22T15:13:44.973Z,33.60
2018-08-22T15:16:15.801Z,33.64
2018-08-22T15:18:46.774Z,33.65
2018-08-22T15:21:17.583Z,33.81
2018-08-22T15:23:48.557Z,33.92
2018-08-22T15:26:19.451Z,33.88
2018-08-22T15:28:50.491Z,33.88
2018-08-22T15:31:21.430Z,33.93
2018-08-22T15:33:53.135Z,33.99
2018-08-22T15:36:25.728Z,33.96
2018-08-22T15:38:55.717Z,34.09
2018-08-22T15:41:25.489Z,33.52
2018-08-22T15:43:56.921Z,33.28
2018-08-22T15:46:27.660Z,33.39
2018-08-22T15:48:58.532Z,33.59
2018-08-22T15:51:29.312Z,33.75
2018-08-22T15:54:17.891Z,33.83
2018-08-22T15:56:47.884Z,33.92
2018-08-22T15:59:19.845Z,33.96
2018-08-22T16:01:49.918Z,33.86
2018-08-22T16:04:20.030Z,33.69
2018-08-22T16:07:21.764Z,33.24
2018-08-22T16:09:51.640Z,33.19
2018-08-22T16:12:21.753Z,33.03
2018-08-22T16:14:51.629Z,32.95
2018-08-22T16:17:21.835Z,33.11
2018-08-22T16:19:52.102Z,33.04
2018-08-22T16:22:21.942Z,32.90
2018-08-22T16:24:52.703Z,32.85
2018-08-22T16:27:22.773Z,32.31
2018-08-22T16:29:53.042Z,32.15
2018-08-22T16:32:23.050Z,32.38
2018-08-22T16:34:52.987Z,32.42
2018-08-22T16:37:28.069Z,32.31
2018-08-22T16:39:57.874Z,31.88
2018-08-22T16:42:32.719Z,31.44
2018-08-22T16:45:02.889Z,31.38
2018-08-22T16:47:35.677Z,31.54
2018-08-22T16:50:07.416Z,31.69
2018-08-22T16:52:37.732Z,31.67
2018-08-22T16:55:21.913Z,31.55
2018-08-22T16:57:52.389Z,31.63
2018-08-22T17:00:36.726Z,31.67
2018-08-22T17:03:08.196Z,31.73
2018-08-22T17:05:37.949Z,31.48
2018-08-22T17:08:08.134Z,31.39
2018-08-22T17:10:51.534Z,31.11
2018-08-22T17:13:30.563Z,30.68
2018-08-22T17:16:02.471Z,30.68
2018-08-22T17:18:32.221Z,30.24
2018-08-22T17:21:01.959Z,30.14
2018-08-22T17:23:31.812Z,30.01
2018-08-22T17:26:01.680Z,29.86
2018-08-22T17:28:36.626Z,29.77
2018-08-22T17:31:06.617Z,29.76
2018-08-22T17:33:38.856Z,29.76
2018-08-22T17:36:09.921Z,29.79
2018-08-22T17:38:41.980Z,29.91
2018-08-22T17:41:11.733Z,29.96
2018-08-22T17:43:57.680Z,29.88
2018-08-22T17:46:29.521Z,29.85
2018-08-22T17:48:59.529Z,29.88
2018-08-22T17:51:29.502Z,29.87
2018-08-22T17:53:59.358Z,29.83
2018-08-22T17:56:29.205Z,29.81
2018-08-22T17:58:58.945Z,29.72
2018-08-22T18:01:30.366Z,29.63
2018-08-22T18:04:00.087Z,29.57
2018-08-22T18:06:30.505Z,29.51
2018-08-22T18:09:01.196Z,29.32
2018-08-22T18:11:30.920Z,29.26
2018-08-22T18:14:00.760Z,29.19
2018-08-22T18:16:30.881Z,29.10
2018-08-22T18:19:00.842Z,29.04
2018-08-22T18:21:46.857Z,28.90
2018-08-22T18:24:16.881Z,28.79
2018-08-22T18:26:48.553Z,28.60
2018-08-22T18:29:18.850Z,28.56
2018-08-22T18:31:48.852Z,28.43
2018-08-22T18:34:18.821Z,28.34
2018-08-22T18:36:49.046Z,28.13
2018-08-22T18:39:18.947Z,28.04
2018-08-22T18:41:48.714Z,27.97
2018-08-22T18:44:18.937Z,27.98
2018-08-22T18:46:48.834Z,27.95
2018-08-22T18:49:18.780Z,28.00
2018-08-22T18:51:48.821Z,27.99
2018-08-22T18:54:19.216Z,27.79
2018-08-22T18:56:49.196Z,27.97
2018-08-22T18:59:26.537Z,27.91
2018-08-22T19:01:56.616Z,27.87
2018-08-22T19:04:27.216Z,27.80
2018-08-22T19:06:57.057Z,27.77
2018-08-22T19:09:26.877Z,27.68
2018-08-22T19:11:59.890Z,27.64
2018-08-22T19:14:40.318Z,27.62
2018-08-22T19:17:10.070Z,27.40
2018-08-22T19:19:43.946Z,27.39
2018-08-22T19:22:15.711Z,27.39
2018-08-22T19:25:03.263Z,27.36
2018-08-22T19:27:34.501Z,27.26
2018-08-22T19:30:07.224Z,27.26
2018-08-22T19:32:37.686Z,27.11
2018-08-22T19:35:07.797Z,26.87
2018-08-22T19:37:37.804Z,26.66
2018-08-22T19:40:09.960Z,26.52
2018-08-22T19:42:41.004Z,26.32
2018-08-22T19:45:11.039Z,26.11
2018-08-22T19:47:41.248Z,25.92
2018-08-22T19:50:11.023Z,25.75
2018-08-22T19:52:40.757Z,25.89
2018-08-22T19:55:11.120Z,25.87
2018-08-22T19:57:41.996Z,25.86
2018-08-22T20:00:14.155Z,26.02
2018-08-22T20:02:44.106Z,26.04
2018-08-22T20:05:14.354Z,26.06
2018-08-22T20:07:44.489Z,25.89
2018-08-22T20:10:14.293Z,25.89
2018-08-22T20:12:52.106Z,25.83
2018-08-22T20:15:22.058Z,25.76
2018-08-22T20:17:53.064Z,25.75
2018-08-22T20:20:23.141Z,25.82
2018-08-22T20:22:55.100Z,25.57
2018-08-22T20:25:25.189Z,25.51
2018-08-22T20:27:54.984Z,25.52
2018-08-22T20:30:24.852Z,25.43
2018-08-22T20:33:00.121Z,25.22
2018-08-22T20:35:34.122Z,25.17
2018-08-22T20:38:07.127Z,24.83
2018-08-22T20:40:37.254Z,24.74
2018-08-22T20:43:08.218Z,24.80
2018-08-22T20:45:38.804Z,24.50
2018-08-22T20:48:13.627Z,24.46
2018-08-22T20:50:45.195Z,24.51
2018-08-22T20:53:18.190Z,24.44
2018-08-22T20:55:48.004Z,24.32
2018-08-22T20:58:36.098Z,24.24
2018-08-22T21:01:06.474Z,24.27
2018-08-22T21:03:36.180Z,24.21
2018-08-22T21:06:11.070Z,24.22
2018-08-22T21:08:41.081Z,24.26
2018-08-22T21:11:11.148Z,24.37
2018-08-22T21:13:41.513Z,24.52
2018-08-22T21:16:11.360Z,24.54
2018-08-22T21:18:41.264Z,24.57
2018-08-22T21:21:27.681Z,24.68
2018-08-22T21:24:04.536Z,24.84
2018-08-22T21:26:41.263Z,25.02
2018-08-22T21:29:11.453Z,25.14
2018-08-22T21:31:41.193Z,25.14
2018-08-22T21:34:16.084Z,25.14
2018-08-22T21:36:46.794Z,25.07
2018-08-22T21:39:21.637Z,24.92
2018-08-22T21:41:51.932Z,24.68
2018-08-22T21:44:23.308Z,24.69
2018-08-22T21:47:01.445Z,24.62
2018-08-22T21:49:31.433Z,24.42
2018-08-22T21:52:02.197Z,24.40
2018-08-22T21:54:32.016Z,24.28
2018-08-22T21:57:01.778Z,24.09
2018-08-22T21:59:31.700Z,24.10
2018-08-22T22:02:07.034Z,24.02
2018-08-22T22:04:38.552Z,23.70
2018-08-22T22:07:10.779Z,23.66
2018-08-22T22:09:41.194Z,23.46
2018-08-22T22:12:16.028Z,23.34
2018-08-22T22:14:46.520Z,23.29
2018-08-22T22:17:16.375Z,23.12
2018-08-22T22:19:46.134Z,23.06
2018-08-22T22:22:15.856Z,23.04
2018-08-22T22:24:51.170Z,22.79
2018-08-22T22:27:21.073Z,22.79
2018-08-22T22:29:52.495Z,22.67
2018-08-22T22:32:22.681Z,22.64
2018-08-22T22:34:52.734Z,22.69
2018-08-22T22:37:22.936Z,22.52
2018-08-22T22:39:52.706Z,22.63
2018-08-22T22:42:27.980Z,22.68
2018-08-22T22:44:58.855Z,22.57
2018-08-22T22:47:30.846Z,22.58
2018-08-22T22:50:01.316Z,22.61
2018-08-22T22:52:36.979Z,22.60
2018-08-22T22:55:07.759Z,22.45
2018-08-22T22:57:39.037Z,22.44
2018-08-22T23:00:12.599Z,22.40
2018-08-22T23:02:42.904Z,22.30
2018-08-22T23:05:12.727Z,22.35
2018-08-22T23:07:43.607Z,22.31
2018-08-22T23:10:15.503Z,22.31
2018-08-22T23:12:46.975Z,22.19
2018-08-22T23:15:19.079Z,22.22
2018-08-22T23:17:50.747Z,22.31
2018-08-22T23:20:45.252Z,22.24
2018-08-22T23:23:31.921Z,22.23
2018-08-22T23:26:07.936Z,22.24
2018-08-22T23:28:37.770Z,22.24
2018-08-22T23:31:07.635Z,22.19
2018-08-22T23:33:37.593Z,22.20
2018-08-22T23:36:07.600Z,22.08
2018-08-22T23:38:39.252Z,22.08
2018-08-22T23:41:08.955Z,22.07
2018-08-22T23:43:44.495Z,22.09
2018-08-22T23:46:14.732Z,22.12
2018-08-22T23:48:44.831Z,22.15
2018-08-22T23:51:15.251Z,22.13
2018-08-22T23:53:48.708Z,21.99
2018-08-22T23:56:25.247Z,21.93
2018-08-22T23:58:55.487Z,21.88
